sensor_id;sensor_type;location;lat;lon;timestamp;P1;durP1;ratioP1;P2;durP2;ratioP2
40284;SDS011;25997;50.214;19.354;2022-09-30T00:00:40;11.20;;;9.63;;
40284;SDS011;25997;50.214;19.354;2022-09-30T00:03:42;11.05;;;9.90;;
40284;SDS011;25997;50.214;19.354;2022-09-30T00:06:48;11.45;;;10.25;;
40284;SDS011;25997;50.214;19.354;2022-09-30T00:09:52;10.65;;;9.55;;
40284;SDS011;25997;50.214;19.354;2022-09-30T00:12:55;11.88;;;9.68;;
40284;SDS011;25997;50.214;19.354;2022-09-30T00:15:58;10.52;;;9.40;;
40284;SDS011;25997;50.214;19.354;2022-09-30T00:19:01;10.15;;;9.10;;
40284;SDS011;25997;50.214;19.354;2022-09-30T00:22:05;10.30;;;9.20;;
40284;SDS011;25997;50.214;19.354;2022-09-30T00:25:09;12.77;;;10.65;;
40284;SDS011;25997;50.214;19.354;2022-09-30T00:28:12;12.05;;;10.45;;
40284;SDS011;25997;50.214;19.354;2022-09-30T00:31:15;12.27;;;9.55;;
40284;SDS011;25997;50.214;19.354;2022-09-30T00:34:19;11.75;;;10.63;;
40284;SDS011;25997;50.214;19.354;2022-09-30T00:37:22;12.18;;;10.88;;
40284;SDS011;25997;50.214;19.354;2022-09-30T00:40:26;11.18;;;10.00;;
40284;SDS011;25997;50.214;19.354;2022-09-30T00:43:40;11.98;;;10.50;;
40284;SDS011;25997;50.214;19.354;2022-09-30T00:46:45;12.32;;;10.45;;
40284;SDS011;25997;50.214;19.354;2022-09-30T00:49:47;14.68;;;11.18;;
40284;SDS011;25997;50.214;19.354;2022-09-30T00:52:51;13.93;;;11.10;;
40284;SDS011;25997;50.214;19.354;2022-09-30T00:56:01;14.82;;;12.23;;
40284;SDS011;25997;50.214;19.354;2022-09-30T00:59:09;13.00;;;11.35;;
40284;SDS011;25997;50.214;19.354;2022-09-30T01:02:15;12.50;;;11.20;;
40284;SDS011;25997;50.214;19.354;2022-09-30T01:05:18;13.43;;;10.48;;
40284;SDS011;25997;50.214;19.354;2022-09-30T01:08:21;12.02;;;10.30;;
40284;SDS011;25997;50.214;19.354;2022-09-30T01:11:27;11.68;;;10.50;;
40284;SDS011;25997;50.214;19.354;2022-09-30T01:14:31;15.10;;;10.93;;
40284;SDS011;25997;50.214;19.354;2022-09-30T01:17:36;11.18;;;10.18;;
40284;SDS011;25997;50.214;19.354;2022-09-30T01:20:53;11.70;;;10.50;;
40284;SDS011;25997;50.214;19.354;2022-09-30T01:24:28;11.93;;;10.73;;
40284;SDS011;25997;50.214;19.354;2022-09-30T01:27:49;12.55;;;10.30;;
40284;SDS011;25997;50.214;19.354;2022-09-30T01:31:12;13.00;;;10.20;;
40284;SDS011;25997;50.214;19.354;2022-09-30T01:34:26;10.93;;;9.48;;
40284;SDS011;25997;50.214;19.354;2022-09-30T01:37:43;11.32;;;10.10;;
40284;SDS011;25997;50.214;19.354;2022-09-30T01:40:53;13.20;;;11.07;;
40284;SDS011;25997;50.214;19.354;2022-09-30T01:44:07;11.15;;;10.00;;
40284;SDS011;25997;50.214;19.354;2022-09-30T01:47:16;11.23;;;10.00;;
40284;SDS011;25997;50.214;19.354;2022-09-30T01:50:26;11.45;;;8.60;;
40284;SDS011;25997;50.214;19.354;2022-09-30T01:53:38;9.07;;;8.15;;
40284;SDS011;25997;50.214;19.354;2022-09-30T01:56:48;10.63;;;9.50;;
40284;SDS011;25997;50.214;19.354;2022-09-30T01:59:56;13.57;;;9.23;;
40284;SDS011;25997;50.214;19.354;2022-09-30T02:03:11;11.73;;;8.32;;
40284;SDS011;25997;50.214;19.354;2022-09-30T02:06:20;10.20;;;9.18;;
40284;SDS011;25997;50.214;19.354;2022-09-30T02:09:27;11.75;;;10.48;;
40284;SDS011;25997;50.214;19.354;2022-09-30T02:12:36;15.95;;;13.00;;
40284;SDS011;25997;50.214;19.354;2022-09-30T02:15:51;16.20;;;13.48;;
40284;SDS011;25997;50.214;19.354;2022-09-30T02:18:59;20.98;;;17.00;;
40284;SDS011;25997;50.214;19.354;2022-09-30T02:22:06;16.73;;;14.77;;
40284;SDS011;25997;50.214;19.354;2022-09-30T02:25:16;20.70;;;17.45;;
40284;SDS011;25997;50.214;19.354;2022-09-30T02:28:21;28.15;;;25.15;;
40284;SDS011;25997;50.214;19.354;2022-09-30T02:31:28;24.25;;;21.15;;
40284;SDS011;25997;50.214;19.354;2022-09-30T02:34:36;20.80;;;18.80;;
40284;SDS011;25997;50.214;19.354;2022-09-30T02:37:42;15.55;;;13.40;;
40284;SDS011;25997;50.214;19.354;2022-09-30T02:40:51;13.70;;;12.38;;
40284;SDS011;25997;50.214;19.354;2022-09-30T02:43:57;13.05;;;11.70;;
40284;SDS011;25997;50.214;19.354;2022-09-30T02:47:06;11.40;;;10.20;;
40284;SDS011;25997;50.214;19.354;2022-09-30T02:50:15;11.05;;;9.57;;
40284;SDS011;25997;50.214;19.354;2022-09-30T02:53:24;11.25;;;9.68;;
40284;SDS011;25997;50.214;19.354;2022-09-30T02:56:33;10.32;;;9.30;;
40284;SDS011;25997;50.214;19.354;2022-09-30T02:59:45;9.50;;;8.52;;
40284;SDS011;25997;50.214;19.354;2022-09-30T03:02:52;10.95;;;9.65;;
40284;SDS011;25997;50.214;19.354;2022-09-30T03:06:02;13.80;;;12.02;;
40284;SDS011;25997;50.214;19.354;2022-09-30T03:09:05;15.85;;;12.85;;
40284;SDS011;25997;50.214;19.354;2022-09-30T03:12:10;13.82;;;12.38;;
40284;SDS011;25997;50.214;19.354;2022-09-30T03:15:35;13.02;;;11.73;;
40284;SDS011;25997;50.214;19.354;2022-09-30T03:18:53;16.38;;;11.50;;
40284;SDS011;25997;50.214;19.354;2022-09-30T03:22:15;15.07;;;12.13;;
40284;SDS011;25997;50.214;19.354;2022-09-30T03:25:36;12.75;;;11.45;;
40284;SDS011;25997;50.214;19.354;2022-09-30T03:28:50;12.95;;;11.75;;
40284;SDS011;25997;50.214;19.354;2022-09-30T03:32:08;15.63;;;11.98;;
40284;SDS011;25997;50.214;19.354;2022-09-30T03:35:24;13.65;;;11.88;;
40284;SDS011;25997;50.214;19.354;2022-09-30T03:38:38;14.68;;;13.25;;
40284;SDS011;25997;50.214;19.354;2022-09-30T03:41:49;12.25;;;11.05;;
40284;SDS011;25997;50.214;19.354;2022-09-30T03:45:01;12.70;;;11.38;;
40284;SDS011;25997;50.214;19.354;2022-09-30T03:48:08;12.02;;;10.82;;
40284;SDS011;25997;50.214;19.354;2022-09-30T03:51:14;11.70;;;10.50;;
40284;SDS011;25997;50.214;19.354;2022-09-30T03:54:18;11.88;;;10.20;;
40284;SDS011;25997;50.214;19.354;2022-09-30T03:57:21;12.20;;;10.93;;
40284;SDS011;25997;50.214;19.354;2022-09-30T04:00:24;12.02;;;10.82;;
40284;SDS011;25997;50.214;19.354;2022-09-30T04:03:26;14.18;;;12.73;;
40284;SDS011;25997;50.214;19.354;2022-09-30T04:06:29;17.98;;;16.08;;
40284;SDS011;25997;50.214;19.354;2022-09-30T04:09:33;16.88;;;14.98;;
40284;SDS011;25997;50.214;19.354;2022-09-30T04:12:36;29.50;;;26.45;;
40284;SDS011;25997;50.214;19.354;2022-09-30T04:15:39;46.78;;;42.00;;
40284;SDS011;25997;50.214;19.354;2022-09-30T04:18:41;31.38;;;28.05;;
40284;SDS011;25997;50.214;19.354;2022-09-30T04:21:44;24.98;;;22.52;;
40284;SDS011;25997;50.214;19.354;2022-09-30T04:24:48;27.80;;;24.95;;
40284;SDS011;25997;50.214;19.354;2022-09-30T04:27:50;25.83;;;23.13;;
40284;SDS011;25997;50.214;19.354;2022-09-30T04:30:53;33.97;;;28.90;;
40284;SDS011;25997;50.214;19.354;2022-09-30T04:33:56;40.58;;;32.67;;
40284;SDS011;25997;50.214;19.354;2022-09-30T04:36:58;26.83;;;23.92;;
40284;SDS011;25997;50.214;19.354;2022-09-30T04:40:02;24.88;;;21.02;;
40284;SDS011;25997;50.214;19.354;2022-09-30T04:43:05;21.70;;;19.48;;
40284;SDS011;25997;50.214;19.354;2022-09-30T04:46:08;22.00;;;19.70;;
40284;SDS011;25997;50.214;19.354;2022-09-30T04:49:11;24.30;;;21.55;;
40284;SDS011;25997;50.214;19.354;2022-09-30T04:52:14;21.02;;;18.77;;
40284;SDS011;25997;50.214;19.354;2022-09-30T04:55:17;20.05;;;18.15;;
40284;SDS011;25997;50.214;19.354;2022-09-30T04:58:20;21.55;;;18.13;;
40284;SDS011;25997;50.214;19.354;2022-09-30T05:01:24;24.63;;;17.55;;
40284;SDS011;25997;50.214;19.354;2022-09-30T05:04:26;18.58;;;16.77;;
40284;SDS011;25997;50.214;19.354;2022-09-30T05:07:29;17.50;;;15.65;;
40284;SDS011;25997;50.214;19.354;2022-09-30T05:10:33;17.20;;;15.35;;
40284;SDS011;25997;50.214;19.354;2022-09-30T05:13:37;15.38;;;13.35;;
40284;SDS011;25997;50.214;19.354;2022-09-30T05:16:40;15.55;;;13.80;;
40284;SDS011;25997;50.214;19.354;2022-09-30T05:19:43;20.50;;;18.38;;
40284;SDS011;25997;50.214;19.354;2022-09-30T05:22:45;23.30;;;20.90;;
40284;SDS011;25997;50.214;19.354;2022-09-30T05:25:49;25.45;;;22.83;;
40284;SDS011;25997;50.214;19.354;2022-09-30T05:28:53;22.17;;;19.88;;
40284;SDS011;25997;50.214;19.354;2022-09-30T05:31:55;16.67;;;15.07;;
40284;SDS011;25997;50.214;19.354;2022-09-30T05:34:58;14.85;;;13.45;;
40284;SDS011;25997;50.214;19.354;2022-09-30T05:38:03;15.40;;;13.90;;
40284;SDS011;25997;50.214;19.354;2022-09-30T05:41:07;16.45;;;14.77;;
40284;SDS011;25997;50.214;19.354;2022-09-30T05:44:11;16.10;;;14.32;;
40284;SDS011;25997;50.214;19.354;2022-09-30T05:47:14;16.42;;;14.73;;
40284;SDS011;25997;50.214;19.354;2022-09-30T05:50:17;16.77;;;13.82;;
40284;SDS011;25997;50.214;19.354;2022-09-30T05:53:20;14.70;;;13.07;;
40284;SDS011;25997;50.214;19.354;2022-09-30T05:56:25;15.85;;;14.32;;
40284;SDS011;25997;50.214;19.354;2022-09-30T05:59:27;15.75;;;14.25;;
40284;SDS011;25997;50.214;19.354;2022-09-30T06:02:30;14.90;;;13.40;;
40284;SDS011;25997;50.214;19.354;2022-09-30T06:05:33;15.65;;;14.02;;
40284;SDS011;25997;50.214;19.354;2022-09-30T06:08:35;17.08;;;13.50;;
40284;SDS011;25997;50.214;19.354;2022-09-30T06:11:39;14.30;;;12.90;;
40284;SDS011;25997;50.214;19.354;2022-09-30T06:14:42;14.63;;;12.98;;
40284;SDS011;25997;50.214;19.354;2022-09-30T06:17:44;17.05;;;14.07;;
40284;SDS011;25997;50.214;19.354;2022-09-30T06:20:54;20.10;;;14.57;;
40284;SDS011;25997;50.214;19.354;2022-09-30T06:23:57;16.23;;;14.45;;
40284;SDS011;25997;50.214;19.354;2022-09-30T06:27:01;15.80;;;12.48;;
40284;SDS011;25997;50.214;19.354;2022-09-30T06:30:04;16.23;;;13.73;;
40284;SDS011;25997;50.214;19.354;2022-09-30T06:33:08;12.95;;;11.65;;
40284;SDS011;25997;50.214;19.354;2022-09-30T06:36:10;12.65;;;11.32;;
40284;SDS011;25997;50.214;19.354;2022-09-30T06:39:13;13.07;;;11.82;;
40284;SDS011;25997;50.214;19.354;2022-09-30T06:42:17;11.95;;;10.75;;
40284;SDS011;25997;50.214;19.354;2022-09-30T06:45:20;12.40;;;10.80;;
40284;SDS011;25997;50.214;19.354;2022-09-30T06:48:23;13.52;;;12.23;;
40284;SDS011;25997;50.214;19.354;2022-09-30T06:51:26;13.50;;;12.13;;
40284;SDS011;25997;50.214;19.354;2022-09-30T06:54:32;13.95;;;12.55;;
40284;SDS011;25997;50.214;19.354;2022-09-30T06:57:37;14.35;;;12.65;;
40284;SDS011;25997;50.214;19.354;2022-09-30T07:00:43;15.70;;;13.93;;
40284;SDS011;25997;50.214;19.354;2022-09-30T07:03:45;11.75;;;10.55;;
40284;SDS011;25997;50.214;19.354;2022-09-30T07:06:49;14.68;;;13.13;;
40284;SDS011;25997;50.214;19.354;2022-09-30T07:09:54;15.32;;;13.73;;
40284;SDS011;25997;50.214;19.354;2022-09-30T07:12:59;14.45;;;12.95;;
40284;SDS011;25997;50.214;19.354;2022-09-30T07:16:02;17.60;;;15.88;;
40284;SDS011;25997;50.214;19.354;2022-09-30T07:19:05;15.90;;;14.18;;
40284;SDS011;25997;50.214;19.354;2022-09-30T07:22:09;16.73;;;14.93;;
40284;SDS011;25997;50.214;19.354;2022-09-30T07:25:31;14.65;;;13.25;;
40284;SDS011;25997;50.214;19.354;2022-09-30T07:28:35;16.35;;;14.23;;
40284;SDS011;25997;50.214;19.354;2022-09-30T07:31:39;14.85;;;13.38;;
40284;SDS011;25997;50.214;19.354;2022-09-30T07:34:41;15.63;;;14.02;;
40284;SDS011;25997;50.214;19.354;2022-09-30T07:37:44;16.30;;;14.50;;
40284;SDS011;25997;50.214;19.354;2022-09-30T07:40:53;19.70;;;16.60;;
40284;SDS011;25997;50.214;19.354;2022-09-30T07:43:59;15.93;;;14.30;;
40284;SDS011;25997;50.214;19.354;2022-09-30T07:47:02;18.15;;;15.75;;
40284;SDS011;25997;50.214;19.354;2022-09-30T07:50:05;16.70;;;14.68;;
40284;SDS011;25997;50.214;19.354;2022-09-30T07:53:09;24.70;;;20.10;;
40284;SDS011;25997;50.214;19.354;2022-09-30T07:56:11;21.50;;;19.13;;
40284;SDS011;25997;50.214;19.354;2022-09-30T07:59:16;20.30;;;17.70;;
40284;SDS011;25997;50.214;19.354;2022-09-30T08:02:19;17.83;;;16.02;;
40284;SDS011;25997;50.214;19.354;2022-09-30T08:05:24;15.70;;;13.40;;
40284;SDS011;25997;50.214;19.354;2022-09-30T08:08:26;16.90;;;14.20;;
40284;SDS011;25997;50.214;19.354;2022-09-30T08:11:31;16.95;;;13.73;;
40284;SDS011;25997;50.214;19.354;2022-09-30T08:14:36;17.45;;;15.65;;
40284;SDS011;25997;50.214;19.354;2022-09-30T08:17:38;28.75;;;23.80;;
40284;SDS011;25997;50.214;19.354;2022-09-30T08:20:41;36.17;;;29.95;;
40284;SDS011;25997;50.214;19.354;2022-09-30T08:23:43;32.20;;;26.50;;
40284;SDS011;25997;50.214;19.354;2022-09-30T08:26:46;22.88;;;20.20;;
40284;SDS011;25997;50.214;19.354;2022-09-30T08:29:50;19.00;;;14.73;;
40284;SDS011;25997;50.214;19.354;2022-09-30T08:32:53;15.70;;;13.70;;
40284;SDS011;25997;50.214;19.354;2022-09-30T08:35:55;15.00;;;13.35;;
40284;SDS011;25997;50.214;19.354;2022-09-30T08:38:58;14.55;;;13.07;;
40284;SDS011;25997;50.214;19.354;2022-09-30T08:42:04;15.07;;;13.48;;
40284;SDS011;25997;50.214;19.354;2022-09-30T08:45:21;14.80;;;12.65;;
40284;SDS011;25997;50.214;19.354;2022-09-30T08:48:33;16.58;;;14.00;;
40284;SDS011;25997;50.214;19.354;2022-09-30T08:51:46;16.58;;;13.60;;
40284;SDS011;25997;50.214;19.354;2022-09-30T08:54:51;18.40;;;13.93;;
40284;SDS011;25997;50.214;19.354;2022-09-30T08:57:56;18.42;;;13.73;;
40284;SDS011;25997;50.214;19.354;2022-09-30T09:01:01;18.38;;;15.32;;
40284;SDS011;25997;50.214;19.354;2022-09-30T09:04:11;23.38;;;17.65;;
40284;SDS011;25997;50.214;19.354;2022-09-30T09:07:18;22.67;;;17.17;;
40284;SDS011;25997;50.214;19.354;2022-09-30T09:10:33;13.30;;;11.30;;
40284;SDS011;25997;50.214;19.354;2022-09-30T09:13:45;12.73;;;11.45;;
40284;SDS011;25997;50.214;19.354;2022-09-30T09:16:57;15.48;;;11.63;;
40284;SDS011;25997;50.214;19.354;2022-09-30T09:20:10;13.95;;;12.57;;
40284;SDS011;25997;50.214;19.354;2022-09-30T09:23:15;15.77;;;12.43;;
40284;SDS011;25997;50.214;19.354;2022-09-30T09:26:18;15.45;;;11.77;;
40284;SDS011;25997;50.214;19.354;2022-09-30T09:29:25;12.63;;;10.82;;
40284;SDS011;25997;50.214;19.354;2022-09-30T09:32:41;11.70;;;10.50;;
40284;SDS011;25997;50.214;19.354;2022-09-30T09:35:47;11.13;;;9.70;;
40284;SDS011;25997;50.214;19.354;2022-09-30T09:38:58;16.48;;;11.63;;
40284;SDS011;25997;50.214;19.354;2022-09-30T09:42:16;12.60;;;11.30;;
40284;SDS011;25997;50.214;19.354;2022-09-30T09:45:34;14.18;;;12.68;;
40284;SDS011;25997;50.214;19.354;2022-09-30T09:48:43;13.55;;;11.50;;
40284;SDS011;25997;50.214;19.354;2022-09-30T09:51:46;12.93;;;11.48;;
40284;SDS011;25997;50.214;19.354;2022-09-30T09:54:55;13.38;;;11.23;;
40284;SDS011;25997;50.214;19.354;2022-09-30T09:58:04;9.80;;;8.75;;
40284;SDS011;25997;50.214;19.354;2022-09-30T10:01:08;12.95;;;11.60;;
40284;SDS011;25997;50.214;19.354;2022-09-30T10:04:33;14.63;;;12.40;;
40284;SDS011;25997;50.214;19.354;2022-09-30T10:07:50;16.42;;;13.57;;
40284;SDS011;25997;50.214;19.354;2022-09-30T10:11:16;16.92;;;11.93;;
40284;SDS011;25997;50.214;19.354;2022-09-30T10:14:21;12.77;;;11.07;;
40284;SDS011;25997;50.214;19.354;2022-09-30T10:17:25;12.20;;;10.95;;
40284;SDS011;25997;50.214;19.354;2022-09-30T10:20:32;11.18;;;9.80;;
40284;SDS011;25997;50.214;19.354;2022-09-30T10:23:37;10.15;;;9.15;;
40284;SDS011;25997;50.214;19.354;2022-09-30T10:26:42;11.18;;;10.07;;
40284;SDS011;25997;50.214;19.354;2022-09-30T10:29:46;9.85;;;8.95;;
40284;SDS011;25997;50.214;19.354;2022-09-30T10:32:48;12.77;;;11.32;;
40284;SDS011;25997;50.214;19.354;2022-09-30T10:35:54;10.95;;;9.93;;
40284;SDS011;25997;50.214;19.354;2022-09-30T10:39:02;11.57;;;10.38;;
40284;SDS011;25997;50.214;19.354;2022-09-30T10:42:09;10.73;;;9.63;;
40284;SDS011;25997;50.214;19.354;2022-09-30T10:45:18;9.67;;;7.77;;
40284;SDS011;25997;50.214;19.354;2022-09-30T10:48:22;9.73;;;8.60;;
40284;SDS011;25997;50.214;19.354;2022-09-30T10:51:31;14.60;;;11.50;;
40284;SDS011;25997;50.214;19.354;2022-09-30T10:54:43;12.80;;;11.50;;
40284;SDS011;25997;50.214;19.354;2022-09-30T10:57:50;16.95;;;15.25;;
40284;SDS011;25997;50.214;19.354;2022-09-30T11:00:56;18.45;;;15.23;;
40284;SDS011;25997;50.214;19.354;2022-09-30T11:04:06;13.48;;;10.18;;
40284;SDS011;25997;50.214;19.354;2022-09-30T11:07:24;13.00;;;10.05;;
40284;SDS011;25997;50.214;19.354;2022-09-30T11:10:32;12.18;;;11.00;;
40284;SDS011;25997;50.214;19.354;2022-09-30T11:13:43;17.05;;;13.15;;
40284;SDS011;25997;50.214;19.354;2022-09-30T11:16:54;10.73;;;8.50;;
40284;SDS011;25997;50.214;19.354;2022-09-30T11:20:08;17.73;;;12.57;;
40284;SDS011;25997;50.214;19.354;2022-09-30T11:23:21;19.55;;;14.50;;
40284;SDS011;25997;50.214;19.354;2022-09-30T11:26:32;26.55;;;17.27;;
40284;SDS011;25997;50.214;19.354;2022-09-30T11:29:46;15.77;;;13.02;;
40284;SDS011;25997;50.214;19.354;2022-09-30T11:33:00;15.77;;;12.15;;
40284;SDS011;25997;50.214;19.354;2022-09-30T11:36:15;15.85;;;11.55;;
40284;SDS011;25997;50.214;19.354;2022-09-30T11:39:30;21.73;;;13.25;;
40284;SDS011;25997;50.214;19.354;2022-09-30T11:43:05;12.32;;;10.55;;
40284;SDS011;25997;50.214;19.354;2022-09-30T11:46:27;10.13;;;8.45;;
40284;SDS011;25997;50.214;19.354;2022-09-30T11:49:43;13.05;;;10.57;;
40284;SDS011;25997;50.214;19.354;2022-09-30T11:52:58;10.20;;;9.07;;
40284;SDS011;25997;50.214;19.354;2022-09-30T11:56:26;10.93;;;9.32;;
40284;SDS011;25997;50.214;19.354;2022-09-30T11:59:41;8.23;;;7.05;;
40284;SDS011;25997;50.214;19.354;2022-09-30T12:02:50;9.32;;;6.88;;
40284;SDS011;25997;50.214;19.354;2022-09-30T12:05:56;22.98;;;12.40;;
40284;SDS011;25997;50.214;19.354;2022-09-30T12:09:05;30.48;;;15.20;;
40284;SDS011;25997;50.214;19.354;2022-09-30T12:12:17;20.92;;;14.60;;
40284;SDS011;25997;50.214;19.354;2022-09-30T12:15:21;27.58;;;18.88;;
40284;SDS011;25997;50.214;19.354;2022-09-30T12:18:26;10.85;;;8.98;;
40284;SDS011;25997;50.214;19.354;2022-09-30T12:21:34;16.23;;;11.38;;
40284;SDS011;25997;50.214;19.354;2022-09-30T12:40:32;14.25;;;10.48;;
40284;SDS011;25997;50.214;19.354;2022-09-30T12:43:53;16.95;;;10.32;;
40284;SDS011;25997;50.214;19.354;2022-09-30T12:47:12;17.00;;;11.38;;
40284;SDS011;25997;50.214;19.354;2022-09-30T12:50:25;17.02;;;10.32;;
40284;SDS011;25997;50.214;19.354;2022-09-30T12:53:30;16.23;;;11.80;;
40284;SDS011;25997;50.214;19.354;2022-09-30T12:56:36;12.45;;;9.23;;
40284;SDS011;25997;50.214;19.354;2022-09-30T12:59:54;13.13;;;10.30;;
40284;SDS011;25997;50.214;19.354;2022-09-30T13:03:02;7.35;;;5.20;;
40284;SDS011;25997;50.214;19.354;2022-09-30T13:06:08;8.15;;;5.05;;
40284;SDS011;25997;50.214;19.354;2022-09-30T13:09:17;5.28;;;4.78;;
40284;SDS011;25997;50.214;19.354;2022-09-30T13:12:27;8.25;;;6.10;;
40284;SDS011;25997;50.214;19.354;2022-09-30T13:15:42;5.88;;;4.47;;
40284;SDS011;25997;50.214;19.354;2022-09-30T13:18:58;6.05;;;3.80;;
40284;SDS011;25997;50.214;19.354;2022-09-30T13:25:53;22.13;;;18.33;;
40284;SDS011;25997;50.214;19.354;2022-09-30T13:32:34;8.43;;;7.03;;
40284;SDS011;25997;50.214;19.354;2022-09-30T13:35:47;11.55;;;7.38;;
40284;SDS011;25997;50.214;19.354;2022-09-30T13:39:05;5.00;;;4.13;;
40284;SDS011;25997;50.214;19.354;2022-09-30T13:42:20;3.63;;;3.20;;
40284;SDS011;25997;50.214;19.354;2022-09-30T13:45:30;7.73;;;6.60;;
40284;SDS011;25997;50.214;19.354;2022-09-30T13:48:41;5.82;;;4.07;;
40284;SDS011;25997;50.214;19.354;2022-09-30T13:51:50;5.22;;;4.72;;
40284;SDS011;25997;50.214;19.354;2022-09-30T13:54:54;5.25;;;4.43;;
40284;SDS011;25997;50.214;19.354;2022-09-30T13:58:03;5.15;;;4.20;;
40284;SDS011;25997;50.214;19.354;2022-09-30T14:01:25;5.82;;;4.90;;
40284;SDS011;25997;50.214;19.354;2022-09-30T14:04:45;5.22;;;3.88;;
40284;SDS011;25997;50.214;19.354;2022-09-30T14:08:01;6.32;;;5.72;;
40284;SDS011;25997;50.214;19.354;2022-09-30T14:18:31;7.25;;;6.28;;
40284;SDS011;25997;50.214;19.354;2022-09-30T14:21:47;7.50;;;6.70;;
40284;SDS011;25997;50.214;19.354;2022-09-30T14:24:52;7.25;;;6.55;;
40284;SDS011;25997;50.214;19.354;2022-09-30T14:28:04;9.13;;;7.55;;
40284;SDS011;25997;50.214;19.354;2022-09-30T14:31:13;17.88;;;14.18;;
40284;SDS011;25997;50.214;19.354;2022-09-30T14:34:16;24.13;;;21.70;;
40284;SDS011;25997;50.214;19.354;2022-09-30T14:37:25;21.33;;;19.42;;
40284;SDS011;25997;50.214;19.354;2022-09-30T14:40:30;17.70;;;15.82;;
40284;SDS011;25997;50.214;19.354;2022-09-30T14:43:34;14.35;;;12.70;;
40284;SDS011;25997;50.214;19.354;2022-09-30T14:46:41;17.05;;;13.43;;
40284;SDS011;25997;50.214;19.354;2022-09-30T14:49:46;11.23;;;10.18;;
40284;SDS011;25997;50.214;19.354;2022-09-30T14:52:52;9.20;;;8.35;;
40284;SDS011;25997;50.214;19.354;2022-09-30T14:55:57;11.60;;;10.25;;
40284;SDS011;25997;50.214;19.354;2022-09-30T14:59:10;12.18;;;9.15;;
40284;SDS011;25997;50.214;19.354;2022-09-30T15:02:18;7.85;;;7.00;;
40284;SDS011;25997;50.214;19.354;2022-09-30T15:05:21;8.38;;;7.57;;
40284;SDS011;25997;50.214;19.354;2022-09-30T15:08:25;11.68;;;8.57;;
40284;SDS011;25997;50.214;19.354;2022-09-30T15:11:28;12.63;;;11.30;;
40284;SDS011;25997;50.214;19.354;2022-09-30T15:14:31;16.25;;;14.65;;
40284;SDS011;25997;50.214;19.354;2022-09-30T15:17:34;17.10;;;15.30;;
40284;SDS011;25997;50.214;19.354;2022-09-30T15:20:38;20.92;;;18.83;;
40284;SDS011;25997;50.214;19.354;2022-09-30T15:23:45;24.95;;;22.58;;
40284;SDS011;25997;50.214;19.354;2022-09-30T15:26:51;25.92;;;23.40;;
40284;SDS011;25997;50.214;19.354;2022-09-30T15:29:55;33.45;;;30.35;;
40284;SDS011;25997;50.214;19.354;2022-09-30T15:32:59;26.42;;;23.70;;
40284;SDS011;25997;50.214;19.354;2022-09-30T15:36:04;31.77;;;28.75;;
40284;SDS011;25997;50.214;19.354;2022-09-30T15:39:18;29.83;;;26.83;;
40284;SDS011;25997;50.214;19.354;2022-09-30T15:42:27;32.85;;;29.50;;
40284;SDS011;25997;50.214;19.354;2022-09-30T15:45:36;161.50;;;131.40;;
40284;SDS011;25997;50.214;19.354;2022-09-30T15:48:40;50.85;;;45.42;;
40284;SDS011;25997;50.214;19.354;2022-09-30T15:51:44;32.78;;;29.38;;
40284;SDS011;25997;50.214;19.354;2022-09-30T15:54:48;29.67;;;26.73;;
40284;SDS011;25997;50.214;19.354;2022-09-30T15:57:51;29.23;;;25.58;;
40284;SDS011;25997;50.214;19.354;2022-09-30T16:00:54;32.20;;;28.70;;
40284;SDS011;25997;50.214;19.354;2022-09-30T16:07:24;33.17;;;29.63;;
40284;SDS011;25997;50.214;19.354;2022-09-30T16:10:29;32.55;;;24.90;;
40284;SDS011;25997;50.214;19.354;2022-09-30T16:13:32;36.63;;;33.20;;
40284;SDS011;25997;50.214;19.354;2022-09-30T16:16:37;46.75;;;37.67;;
40284;SDS011;25997;50.214;19.354;2022-09-30T16:19:39;44.15;;;39.75;;
40284;SDS011;25997;50.214;19.354;2022-09-30T16:22:48;56.83;;;47.30;;
40284;SDS011;25997;50.214;19.354;2022-09-30T16:26:01;33.55;;;28.13;;
40284;SDS011;25997;50.214;19.354;2022-09-30T16:29:13;23.25;;;20.70;;
40284;SDS011;25997;50.214;19.354;2022-09-30T16:32:17;15.90;;;14.23;;
40284;SDS011;25997;50.214;19.354;2022-09-30T16:35:20;16.98;;;15.30;;
40284;SDS011;25997;50.214;19.354;2022-09-30T16:38:25;24.83;;;18.50;;
40284;SDS011;25997;50.214;19.354;2022-09-30T16:41:29;31.38;;;23.55;;
40284;SDS011;25997;50.214;19.354;2022-09-30T16:44:31;43.60;;;31.85;;
40284;SDS011;25997;50.214;19.354;2022-09-30T16:47:35;59.13;;;43.55;;
40284;SDS011;25997;50.214;19.354;2022-09-30T16:50:38;61.95;;;53.05;;
40284;SDS011;25997;50.214;19.354;2022-09-30T16:53:44;85.43;;;66.03;;
40284;SDS011;25997;50.214;19.354;2022-09-30T16:56:49;62.65;;;52.47;;
40284;SDS011;25997;50.214;19.354;2022-09-30T16:59:51;59.38;;;51.05;;
40284;SDS011;25997;50.214;19.354;2022-09-30T17:02:55;57.58;;;51.42;;
40284;SDS011;25997;50.214;19.354;2022-09-30T17:05:58;61.00;;;50.35;;
40284;SDS011;25997;50.214;19.354;2022-09-30T17:09:01;63.17;;;47.95;;
40284;SDS011;25997;50.214;19.354;2022-09-30T17:12:06;60.70;;;45.28;;
40284;SDS011;25997;50.214;19.354;2022-09-30T17:15:10;34.85;;;31.25;;
40284;SDS011;25997;50.214;19.354;2022-09-30T17:18:13;39.45;;;35.15;;
40284;SDS011;25997;50.214;19.354;2022-09-30T17:21:17;35.75;;;32.00;;
40284;SDS011;25997;50.214;19.354;2022-09-30T17:24:20;34.65;;;30.83;;
40284;SDS011;25997;50.214;19.354;2022-09-30T17:27:24;28.85;;;25.95;;
40284;SDS011;25997;50.214;19.354;2022-09-30T17:30:26;29.55;;;25.60;;
40284;SDS011;25997;50.214;19.354;2022-09-30T17:33:30;24.35;;;21.30;;
40284;SDS011;25997;50.214;19.354;2022-09-30T17:36:33;24.13;;;21.50;;
40284;SDS011;25997;50.214;19.354;2022-09-30T17:39:36;36.22;;;28.50;;
40284;SDS011;25997;50.214;19.354;2022-09-30T17:42:40;34.65;;;31.00;;
40284;SDS011;25997;50.214;19.354;2022-09-30T17:46:00;50.45;;;42.67;;
40284;SDS011;25997;50.214;19.354;2022-09-30T17:49:03;60.28;;;53.47;;
40284;SDS011;25997;50.214;19.354;2022-09-30T17:52:05;62.03;;;55.55;;
40284;SDS011;25997;50.214;19.354;2022-09-30T17:55:09;59.63;;;53.42;;
40284;SDS011;25997;50.214;19.354;2022-09-30T17:58:14;56.03;;;49.50;;
40284;SDS011;25997;50.214;19.354;2022-09-30T18:01:20;61.45;;;51.00;;
40284;SDS011;25997;50.214;19.354;2022-09-30T18:04:23;51.33;;;45.47;;
40284;SDS011;25997;50.214;19.354;2022-09-30T18:07:28;50.55;;;43.88;;
40284;SDS011;25997;50.214;19.354;2022-09-30T18:10:34;56.55;;;42.38;;
40284;SDS011;25997;50.214;19.354;2022-09-30T18:13:39;33.88;;;29.00;;
40284;SDS011;25997;50.214;19.354;2022-09-30T18:16:42;36.53;;;32.72;;
40284;SDS011;25997;50.214;19.354;2022-09-30T18:19:45;38.53;;;33.58;;
40284;SDS011;25997;50.214;19.354;2022-09-30T18:22:48;40.30;;;32.38;;
40284;SDS011;25997;50.214;19.354;2022-09-30T18:25:51;31.10;;;24.48;;
40284;SDS011;25997;50.214;19.354;2022-09-30T18:29:00;29.50;;;23.75;;
40284;SDS011;25997;50.214;19.354;2022-09-30T18:32:03;40.05;;;25.17;;
40284;SDS011;25997;50.214;19.354;2022-09-30T18:35:08;27.58;;;21.58;;